Time;durP1;ratioP1;P1;durP2;ratioP2;P2;SDS_P1;SDS_P2;PMS_P1;PMS_P2;Temp;Humidity;BMP_temperature;BMP_pressure;BME280_temperature;BME280_humidity;BME280_pressure;Samples;Min_cycle;Max_cycle;Signal;HPM_P1;HPM_P2
2021/06/10 00:00:42;;;;;;;16.00;14.40;;;18.40;99.90;;;;;;5131494;28;20551;-79
2021/06/10 00:03:08;;;;;;;15.47;13.87;;;18.40;99.90;;;;;;5090259;28;20392;-81
2021/06/10 00:05:34;;;;;;;17.43;13.27;;;18.40;99.90;;;;;;5121506;28;20427;-81
2021/06/10 00:08:00;;;;;;;14.70;12.83;;;18.30;99.90;;;;;;5086106;28;20669;-81
2021/06/10 00:10:28;;;;;;;18.07;13.03;;;18.30;99.90;;;;;;5121084;28;20387;-81
2021/06/10 00:12:54;;;;;;;16.00;13.97;;;18.30;99.90;;;;;;5101368;28;20786;-81
2021/06/10 00:15:23;;;;;;;15.30;13.70;;;18.30;99.90;;;;;;5119558;28;20388;-81
2021/06/10 00:17:49;;;;;;;19.23;15.63;;;18.30;99.90;;;;;;5085722;28;20392;-81
2021/06/10 00:20:17;;;;;;;16.40;14.70;;;18.20;99.90;;;;;;5102615;28;20388;-81
2021/06/10 00:22:43;;;;;;;19.80;15.03;;;18.20;99.90;;;;;;5084791;28;20433;-81
2021/06/10 00:25:10;;;;;;;18.47;14.90;;;18.20;99.90;;;;;;5084404;28;20441;-82
2021/06/10 00:27:38;;;;;;;17.80;15.47;;;18.20;99.90;;;;;;5101754;28;20471;-81
2021/06/10 00:30:07;;;;;;;20.47;14.73;;;18.20;99.90;;;;;;5101179;28;20387;-81
2021/06/10 00:32:34;;;;;;;16.23;14.50;;;18.20;99.90;;;;;;5101725;28;20763;-81
2021/06/10 00:35:00;;;;;;;20.80;14.07;;;18.20;99.90;;;;;;5102389;28;20388;-81
2021/06/10 00:37:26;;;;;;;16.10;14.20;;;18.20;99.90;;;;;;5084494;28;20434;-81
2021/06/10 00:39:52;;;;;;;17.20;15.13;;;18.20;99.90;;;;;;5101433;28;20619;-81
2021/06/10 00:42:18;;;;;;;19.57;16.10;;;18.20;99.90;;;;;;5105469;28;20173;-81
2021/06/10 00:44:44;;;;;;;16.50;13.77;;;18.20;99.90;;;;;;5105540;28;20154;-81
2021/06/10 00:47:10;;;;;;;22.90;15.90;;;18.10;99.90;;;;;;5105661;28;20197;-81
2021/06/10 00:49:36;;;;;;;16.37;14.67;;;18.10;99.90;;;;;;5105262;28;20478;-81
2021/06/10 00:52:03;;;;;;;20.70;16.30;;;18.10;99.90;;;;;;5088495;28;20627;-81
2021/06/10 00:54:29;;;;;;;21.00;16.77;;;18.10;99.90;;;;;;5088321;28;20391;-81
2021/06/10 00:56:56;;;;;;;17.93;15.10;;;18.00;99.90;;;;;;5105022;28;20461;-81
2021/06/10 00:59:21;;;;;;;14.50;12.83;;;18.00;99.90;;;;;;5071343;28;20413;-81
2021/06/10 01:01:48;;;;;;;15.73;14.13;;;17.90;99.90;;;;;;5105839;28;20414;-81
2021/06/10 01:04:14;;;;;;;16.60;13.77;;;17.70;99.90;;;;;;5126105;28;20173;-81
2021/06/10 01:06:54;;;;;;;14.27;12.77;;;17.30;99.90;;;;;;5123293;28;20388;-81
2021/06/10 01:09:33;;;;;;;14.23;12.77;;;17.00;99.90;;;;;;5122994;28;20549;-81
2021/06/10 01:12:21;;;;;;;14.20;12.80;;;16.60;99.90;;;;;;5087983;28;20400;-81
2021/06/10 01:15:00;;;;;;;15.80;11.40;;;16.50;99.90;;;;;;5107653;28;20966;-81
2021/06/10 01:17:29;;;;;;;14.17;12.87;;;16.40;99.90;;;;;;5106162;28;20388;-81
2021/06/10 01:20:11;;;;;;;17.23;14.10;;;16.30;99.90;;;;;;5112631;28;20396;-79
2021/06/10 01:22:48;;;;;;;15.83;13.97;;;16.20;99.90;;;;;;5114730;28;20417;-81
2021/06/10 01:25:32;;;;;;;14.13;12.00;;;16.30;99.90;;;;;;5126025;28;20466;-81
2021/06/10 01:28:03;;;;;;;14.80;13.30;;;16.20;99.90;;;;;;5126641;28;20919;-80
2021/06/10 01:30:35;;;;;;;15.80;14.20;;;16.30;99.90;;;;;;5074331;28;20388;-81
2021/06/10 01:33:07;;;;;;;14.40;12.83;;;16.30;99.90;;;;;;5105420;28;20392;-81
2021/06/10 01:35:36;;;;;;;15.27;12.57;;;16.30;99.90;;;;;;5088474;28;20384;-82
2021/06/10 01:38:04;;;;;;;15.93;12.10;;;16.40;99.90;;;;;;5122429;28;20403;-81
2021/06/10 01:40:31;;;;;;;16.10;14.50;;;16.20;99.90;;;;;;5123012;28;20743;-82
2021/06/10 01:42:58;;;;;;;14.17;12.77;;;16.40;99.90;;;;;;5123151;28;20875;-82
2021/06/10 01:45:24;;;;;;;17.47;14.10;;;16.40;99.90;;;;;;5122729;28;20403;-81
2021/06/10 01:47:51;;;;;;;14.60;13.10;;;16.40;99.90;;;;;;5121981;28;20436;-81
2021/06/10 01:50:20;;;;;;;17.40;13.30;;;16.40;99.90;;;;;;5105055;28;20424;-81
2021/06/10 01:52:47;;;;;;;14.93;13.43;;;16.30;99.90;;;;;;5088380;28;20384;-81
2021/06/10 01:55:16;;;;;;;13.37;12.03;;;16.30;99.90;;;;;;5104762;28;20388;-81
2021/06/10 01:57:44;;;;;;;13.77;12.40;;;16.00;99.90;;;;;;5088341;28;20931;-81
2021/06/10 02:00:13;;;;;;;14.80;12.80;;;15.90;99.90;;;;;;5122271;28;20399;-82
2021/06/10 02:02:39;;;;;;;14.03;12.63;;;16.00;99.90;;;;;;5105014;28;20392;-82
2021/06/10 02:05:08;;;;;;;15.80;12.53;;;16.00;99.90;;;;;;5101042;28;20408;-82
2021/06/10 02:07:39;;;;;;;17.43;14.70;;;16.00;99.90;;;;;;5115213;28;20427;-81
2021/06/10 02:10:08;;;;;;;16.03;13.07;;;16.20;99.90;;;;;;5088652;28;20396;-81
2021/06/10 02:12:34;;;;;;;15.87;13.30;;;16.50;99.90;;;;;;5105677;28;20372;-82
2021/06/10 02:15:05;;;;;;;16.33;12.83;;;16.60;99.90;;;;;;5123885;28;20445;-82
2021/06/10 02:17:31;;;;;;;19.87;16.30;;;16.80;99.90;;;;;;5123633;28;20415;-82
2021/06/10 02:19:57;;;;;;;19.97;17.40;;;17.00;99.90;;;;;;5106130;28;20378;-82
2021/06/10 02:22:23;;;;;;;22.40;19.43;;;17.10;99.90;;;;;;5090179;28;20416;-81
2021/06/10 02:24:50;;;;;;;20.17;15.60;;;17.20;99.90;;;;;;5107616;28;20750;-82
2021/06/10 02:27:16;;;;;;;19.30;16.27;;;17.30;99.90;;;;;;5132082;28;20167;-81
2021/06/10 02:29:44;;;;;;;21.83;16.77;;;17.30;99.90;;;;;;5136382;28;20429;-81
2021/06/10 02:32:10;;;;;;;19.80;15.60;;;17.40;99.90;;;;;;5104094;28;20400;-80
2021/06/10 02:34:36;;;;;;;26.53;18.07;;;17.40;99.90;;;;;;5117874;28;20452;-81
2021/06/10 02:37:05;;;;;;;21.70;16.50;;;17.30;99.90;;;;;;5105993;28;20500;-82
2021/06/10 02:39:35;;;;;;;22.93;17.90;;;17.00;99.90;;;;;;5104283;28;20498;-81
2021/06/10 02:42:04;;;;;;;27.97;18.83;;;17.00;99.90;;;;;;5121795;28;20414;-82
2021/06/10 02:44:31;;;;;;;25.33;19.87;;;17.20;99.90;;;;;;5089675;28;20494;-82
2021/06/10 02:46:58;;;;;;;25.70;19.63;;;17.30;99.90;;;;;;5087827;28;20882;-81
2021/06/10 02:49:25;;;;;;;26.33;17.23;;;17.40;99.90;;;;;;5103148;28;20471;-82
2021/06/10 02:51:52;;;;;;;29.90;20.03;;;17.30;99.90;;;;;;5103108;28;20405;-81
2021/06/10 02:54:20;;;;;;;23.97;18.40;;;17.40;99.90;;;;;;5086613;28;20400;-81
2021/06/10 02:56:46;;;;;;;23.33;18.30;;;17.40;99.90;;;;;;5086410;28;20392;-81
2021/06/10 02:59:16;;;;;;;24.00;19.27;;;17.40;99.90;;;;;;5108464;28;20748;-79
2021/06/10 03:01:43;;;;;;;28.27;19.40;;;17.50;99.90;;;;;;5113790;28;20431;-79
2021/06/10 03:04:13;;;;;;;28.60;21.17;;;17.50;99.90;;;;;;5087580;28;20396;-81
2021/06/10 03:06:40;;;;;;;28.27;20.57;;;17.50;99.90;;;;;;5086493;28;20391;-81
2021/06/10 03:09:07;;;;;;;30.10;18.57;;;17.50;99.90;;;;;;5101932;28;20467;-81
2021/06/10 03:11:36;;;;;;;33.00;20.70;;;17.50;99.90;;;;;;5102567;28;20403;-82
2021/06/10 03:14:03;;;;;;;28.40;17.80;;;17.50;99.90;;;;;;5120805;28;20445;-82
2021/06/10 03:16:29;;;;;;;28.67;18.43;;;17.50;99.90;;;;;;5120810;28;20422;-81
2021/06/10 03:18:56;;;;;;;30.63;18.83;;;17.50;99.90;;;;;;5102598;28;20873;-81
2021/06/10 03:21:25;;;;;;;18.67;15.03;;;17.40;99.90;;;;;;5099384;28;20892;-81
2021/06/10 03:23:51;;;;;;;19.07;15.60;;;16.80;99.90;;;;;;5083178;28;20400;-82
2021/06/10 03:26:21;;;;;;;18.73;14.90;;;16.40;99.90;;;;;;5103279;28;20401;-82
2021/06/10 03:28:47;;;;;;;22.50;14.57;;;16.20;99.90;;;;;;5104082;28;20450;-82
2021/06/10 03:31:13;;;;;;;22.80;17.60;;;16.30;99.90;;;;;;5085805;28;20418;-82
2021/06/10 03:33:39;;;;;;;20.50;15.07;;;16.30;99.90;;;;;;5102816;28;20396;-81
2021/06/10 03:36:08;;;;;;;24.67;17.60;;;16.30;99.90;;;;;;5102327;28;20388;-81
2021/06/10 03:38:34;;;;;;;25.10;15.87;;;16.30;99.90;;;;;;5102464;28;20396;-81
2021/06/10 03:41:01;;;;;;;26.83;17.00;;;16.20;99.90;;;;;;5102577;28;20403;-81
2021/06/10 03:43:27;;;;;;;24.63;18.40;;;16.20;99.90;;;;;;5102563;28;20395;-81
2021/06/10 03:45:54;;;;;;;26.87;16.77;;;16.10;99.90;;;;;;5102529;28;20388;-81
2021/06/10 03:48:20;;;;;;;19.77;15.90;;;16.10;99.90;;;;;;5085021;28;20459;-81
2021/06/10 03:50:47;;;;;;;20.77;15.90;;;15.90;99.90;;;;;;5120219;28;20395;-82
2021/06/10 03:53:12;;;;;;;29.67;17.37;;;15.90;99.90;;;;;;5102582;28;20445;-82
2021/06/10 03:55:40;;;;;;;31.13;17.77;;;16.00;99.90;;;;;;5102410;28;20801;-82
2021/06/10 03:58:06;;;;;;;30.87;20.00;;;15.90;99.90;;;;;;5085085;28;20162;-81
2021/06/10 04:00:32;;;;;;;23.83;16.30;;;16.00;99.90;;;;;;5085524;28;20925;-82
2021/06/10 04:02:59;;;;;;;25.30;17.27;;;15.90;99.90;;;;;;5102466;28;20166;-82
2021/06/10 04:05:29;;;;;;;25.67;17.50;;;15.80;99.90;;;;;;5119884;28;20428;-81
2021/06/10 04:07:56;;;;;;;21.33;17.23;;;16.00;99.90;;;;;;5119489;28;21004;-81
2021/06/10 04:10:22;;;;;;;27.03;18.47;;;16.10;99.90;;;;;;5122358;28;20398;-81
2021/06/10 04:12:49;;;;;;;37.47;15.80;;;16.10;99.90;;;;;;5109417;28;20781;-81
2021/06/10 04:15:16;;;;;;;26.93;18.20;;;15.90;99.90;;;;;;5108980;28;20403;-81
2021/06/10 04:17:44;;;;;;;28.80;18.30;;;15.70;99.90;;;;;;5127128;28;20732;-81
2021/06/10 04:20:11;;;;;;;39.80;17.43;;;15.90;99.90;;;;;;5108622;28;20383;-82
2021/06/10 04:22:36;;;;;;;27.07;17.00;;;15.90;99.90;;;;;;5126481;28;20398;-81
2021/06/10 04:25:03;;;;;;;38.43;19.37;;;16.00;99.90;;;;;;5126997;28;20388;-81
2021/06/10 04:27:29;;;;;;;32.17;20.40;;;16.00;99.90;;;;;;5092217;28;20561;-81
2021/06/10 04:29:55;;;;;;;43.03;19.17;;;16.10;99.90;;;;;;5109132;28;20522;-81
2021/06/10 04:32:20;;;;;;;38.23;17.37;;;15.90;99.90;;;;;;5091100;28;20253;-81
2021/06/10 04:34:46;;;;;;;36.73;17.30;;;15.80;99.90;;;;;;5108689;28;20599;-81
2021/06/10 04:37:12;;;;;;;27.23;17.53;;;15.80;99.90;;;;;;5108467;28;20502;-81
2021/06/10 04:39:38;;;;;;;25.97;17.37;;;15.70;99.90;;;;;;5108423;28;20515;-81
2021/06/10 04:42:04;;;;;;;25.80;14.83;;;15.70;99.90;;;;;;5126362;28;20426;-81
2021/06/10 04:44:32;;;;;;;22.27;15.00;;;15.70;99.90;;;;;;5092179;28;20587;-81
2021/06/10 04:46:57;;;;;;;22.03;14.33;;;15.70;99.90;;;;;;5076869;28;20395;-81
2021/06/10 04:49:23;;;;;;;41.50;17.37;;;15.80;99.90;;;;;;5108699;28;20466;-81
2021/06/10 04:51:49;;;;;;;29.27;16.60;;;15.80;99.90;;;;;;5129302;28;20162;-78
2021/06/10 04:54:15;;;;;;;28.27;16.50;;;15.60;99.90;;;;;;5113910;28;20299;-79
2021/06/10 04:56:40;;;;;;;33.00;15.63;;;15.60;99.90;;;;;;5131279;28;20150;-79
2021/06/10 04:59:06;;;;;;;28.43;14.00;;;15.60;99.90;;;;;;5114120;28;20253;-82
2021/06/10 05:01:32;;;;;;;21.73;13.83;;;15.70;99.90;;;;;;5127170;28;20575;-82
2021/06/10 05:03:58;;;;;;;18.73;14.23;;;15.60;99.90;;;;;;5109971;28;20248;-81
2021/06/10 05:06:24;;;;;;;22.27;13.97;;;15.60;99.90;;;;;;5128844;28;20162;-82
2021/06/10 05:08:50;;;;;;;22.10;13.60;;;15.40;99.90;;;;;;5127931;28;20208;-82
2021/06/10 05:11:16;;;;;;;31.60;14.57;;;15.50;99.90;;;;;;5109545;28;20240;-82
2021/06/10 05:13:42;;;;;;;24.23;15.17;;;15.50;99.90;;;;;;5133739;28;20403;-79
2021/06/10 05:16:08;;;;;;;18.33;13.00;;;15.50;99.90;;;;;;5124409;28;20225;-79
2021/06/10 05:18:34;;;;;;;15.37;12.67;;;15.40;99.90;;;;;;5143042;27;20154;-80
2021/06/10 05:21:00;;;;;;;15.87;13.37;;;15.60;99.90;;;;;;5141899;28;20166;-79
2021/06/10 05:23:26;;;;;;;14.63;12.77;;;15.60;99.90;;;;;;5134266;28;20395;-81
2021/06/10 05:25:51;;;;;;;14.70;12.70;;;15.60;99.90;;;;;;5124386;28;20202;-81
2021/06/10 05:28:17;;;;;;;13.37;11.90;;;15.60;99.90;;;;;;5088262;28;20228;-81
2021/06/10 05:30:43;;;;;;;13.33;11.23;;;15.70;99.90;;;;;;5125350;28;20241;-81
2021/06/10 05:33:09;;;;;;;18.73;12.47;;;15.50;99.90;;;;;;5108219;28;20154;-81
2021/06/10 05:35:35;;;;;;;13.50;11.30;;;15.60;99.90;;;;;;5126167;28;20162;-79
2021/06/10 05:38:03;;;;;;;14.47;12.97;;;15.50;99.90;;;;;;5115946;28;20201;-81
2021/06/10 05:40:29;;;;;;;12.37;10.97;;;15.50;99.90;;;;;;5106814;28;20392;-81
2021/06/10 05:42:55;;;;;;;15.23;11.43;;;15.70;99.90;;;;;;5106137;28;20208;-79
2021/06/10 05:45:21;;;;;;;13.60;10.50;;;15.70;99.90;;;;;;5098568;28;20186;-81
2021/06/10 05:47:47;;;;;;;13.00;11.60;;;15.60;99.90;;;;;;5112131;27;20205;-82
2021/06/10 05:50:14;;;;;;;14.07;12.53;;;15.70;99.90;;;;;;5101656;28;20587;-82
2021/06/10 05:52:40;;;;;;;15.73;13.10;;;15.90;99.90;;;;;;5117899;27;20824;-82
2021/06/10 05:55:07;;;;;;;14.00;12.70;;;16.10;99.90;;;;;;5085818;28;20881;-83
2021/06/10 05:57:33;;;;;;;15.70;12.73;;;16.10;99.90;;;;;;5086369;28;20389;-83
2021/06/10 06:00:00;;;;;;;13.30;12.00;;;16.20;99.90;;;;;;5086725;28;20381;-82
2021/06/10 06:02:26;;;;;;;14.20;12.80;;;16.50;99.90;;;;;;5088879;28;20404;-82
2021/06/10 06:04:52;;;;;;;12.70;11.40;;;16.60;99.90;;;;;;5025437;28;20494;-82
2021/06/10 06:07:21;;;;;;;13.60;12.20;;;16.70;99.90;;;;;;5011802;28;20418;-82
2021/06/10 06:09:51;;;;;;;14.73;12.03;;;16.60;99.90;;;;;;5026113;28;20514;-82
2021/06/10 06:12:21;;;;;;;14.27;12.10;;;16.30;99.90;;;;;;5002156;28;20488;-82
2021/06/10 06:14:47;;;;;;;16.17;14.37;;;16.20;99.90;;;;;;4988000;28;20433;-82
2021/06/10 06:17:14;;;;;;;13.93;12.50;;;16.20;99.90;;;;;;4974797;28;20900;-82
2021/06/10 06:19:40;;;;;;;15.60;13.13;;;16.30;99.90;;;;;;4991517;28;20189;-82
2021/06/10 06:22:08;;;;;;;15.73;12.97;;;16.40;99.90;;;;;;5009054;28;20422;-82
2021/06/10 06:24:34;;;;;;;15.10;13.40;;;16.50;99.90;;;;;;5010980;28;20440;-83
2021/06/10 06:27:01;;;;;;;14.70;12.90;;;16.50;99.90;;;;;;4981114;28;20459;-82
2021/06/10 06:29:27;;;;;;;15.37;13.37;;;16.60;99.90;;;;;;4987783;28;20462;-82
2021/06/10 06:31:53;;;;;;;14.70;13.13;;;16.80;99.90;;;;;;5028013;28;20436;-81
2021/06/10 06:34:22;;;;;;;15.10;13.53;;;17.20;99.90;;;;;;5015345;28;20412;-82
2021/06/10 06:36:48;;;;;;;16.60;14.20;;;17.70;99.90;;;;;;5022509;28;20397;-82
2021/06/10 06:39:15;;;;;;;13.10;11.70;;;17.90;99.90;;;;;;5023711;28;20316;-82
2021/06/10 06:41:42;;;;;;;16.57;14.83;;;17.80;99.90;;;;;;5021890;28;20539;-82
2021/06/10 06:44:08;;;;;;;14.50;12.77;;;17.90;99.90;;;;;;5028996;28;20419;-81
2021/06/10 06:46:35;;;;;;;14.27;12.90;;;17.90;99.90;;;;;;5037559;28;20457;-81
2021/06/10 06:49:02;;;;;;;17.87;14.17;;;17.80;99.90;;;;;;5023740;28;20464;-81
2021/06/10 06:51:28;;;;;;;15.57;13.50;;;17.90;99.90;;;;;;4998187;28;20420;-82
2021/06/10 06:53:54;;;;;;;20.47;15.83;;;18.60;99.90;;;;;;5025216;28;20499;-82
2021/06/10 06:56:25;;;;;;;23.43;14.70;;;19.00;99.90;;;;;;5069117;28;20191;-80
2021/06/10 06:58:53;;;;;;;17.00;14.67;;;19.20;99.90;;;;;;5024865;28;20965;-81
2021/06/10 07:01:20;;;;;;;16.53;14.87;;;19.30;99.90;;;;;;5040908;28;20416;-82
2021/06/10 07:03:46;;;;;;;17.43;15.27;;;19.30;99.90;;;;;;5068090;28;20452;-82
2021/06/10 07:06:12;;;;;;;17.50;15.57;;;19.30;99.90;;;;;;5044762;28;20501;-81
2021/06/10 07:08:38;;;;;;;17.90;16.00;;;19.40;99.90;;;;;;5097053;28;20461;-82
2021/06/10 07:11:04;;;;;;;19.80;16.17;;;19.40;99.90;;;;;;5083301;28;20751;-82
2021/06/10 07:13:30;;;;;;;17.53;15.83;;;19.50;99.90;;;;;;5055745;28;20437;-81
2021/06/10 07:15:56;;;;;;;24.27;17.17;;;19.20;99.90;;;;;;5062311;28;20916;-81
2021/06/10 07:18:22;;;;;;;21.73;17.90;;;19.40;99.90;;;;;;5067730;28;20628;-81
2021/06/10 07:20:48;;;;;;;19.57;17.00;;;19.50;99.90;;;;;;5053941;28;20424;-82
2021/06/10 07:23:14;;;;;;;18.20;16.27;;;19.50;99.90;;;;;;5073954;28;20612;-81
2021/06/10 07:25:41;;;;;;;27.57;20.70;;;19.50;99.90;;;;;;5082950;28;20416;-81
2021/06/10 07:28:07;;;;;;;23.20;18.57;;;19.70;99.90;;;;;;5064504;28;20405;-82
2021/06/10 07:30:34;;;;;;;21.87;19.37;;;19.70;99.90;;;;;;5099459;28;20412;-82
2021/06/10 07:33:00;;;;;;;25.80;21.40;;;19.90;99.90;;;;;;5067369;28;20428;-82
2021/06/10 07:35:26;;;;;;;28.87;21.70;;;20.00;99.90;;;;;;5073437;28;20413;-81
2021/06/10 07:37:54;;;;;;;27.80;21.63;;;20.00;99.90;;;;;;5084066;28;20171;-82
2021/06/10 07:40:23;;;;;;;28.40;20.70;;;20.00;99.90;;;;;;5062930;28;20209;-82
2021/06/10 07:42:49;;;;;;;25.70;21.10;;;20.10;99.90;;;;;;5077779;28;20423;-82
2021/06/10 07:45:15;;;;;;;31.30;22.23;;;20.10;99.90;;;;;;5061995;28;20416;-81
2021/06/10 07:47:41;;;;;;;27.87;21.67;;;20.10;99.90;;;;;;5067320;28;20451;-81
2021/06/10 07:50:10;;;;;;;27.77;19.03;;;20.20;99.90;;;;;;5102184;28;20929;-81
2021/06/10 07:52:36;;;;;;;27.17;20.00;;;20.20;99.90;;;;;;5089583;28;20408;-79
2021/06/10 07:55:03;;;;;;;30.60;20.10;;;20.00;99.90;;;;;;5076066;28;20409;-81
2021/06/10 07:57:30;;;;;;;26.33;19.43;;;19.60;99.90;;;;;;5077231;28;20450;-81
2021/06/10 07:59:56;;;;;;;29.60;19.83;;;19.70;99.90;;;;;;5095029;28;20408;-81
2021/06/10 08:02:23;;;;;;;27.03;19.97;;;20.00;99.90;;;;;;5064721;28;20423;-81
2021/06/10 08:04:49;;;;;;;28.20;19.50;;;20.30;99.90;;;;;;5083169;28;20455;-81
2021/06/10 08:07:15;;;;;;;34.37;20.47;;;20.10;99.90;;;;;;5084139;28;20498;-82
2021/06/10 08:09:41;;;;;;;25.47;20.87;;;20.20;99.90;;;;;;5066875;28;20448;-81
2021/06/10 08:12:08;;;;;;;24.50;20.77;;;20.20;99.90;;;;;;5080865;28;20213;-81
2021/06/10 08:14:37;;;;;;;26.83;18.90;;;20.60;99.90;;;;;;5060967;28;20226;-80
2021/06/10 08:17:03;;;;;;;23.73;20.00;;;20.60;99.90;;;;;;5077810;28;20941;-80
2021/06/10 08:19:29;;;;;;;21.20;16.00;;;20.60;99.90;;;;;;5074705;28;20885;-81
2021/06/10 08:21:55;;;;;;;20.70;16.67;;;21.00;99.90;;;;;;5066054;28;20420;-82
2021/06/10 08:24:20;;;;;;;20.67;15.80;;;21.30;99.90;;;;;;5066896;28;20696;-82
2021/06/10 08:26:48;;;;;;;19.47;17.47;;;21.30;99.90;;;;;;5066105;28;20165;-81
2021/06/10 08:29:14;;;;;;;23.37;17.50;;;21.60;99.90;;;;;;5059650;28;20186;-81
2021/06/10 08:31:40;;;;;;;21.87;16.10;;;21.80;99.90;;;;;;5079658;28;20546;-82
2021/06/10 08:34:07;;;;;;;24.47;17.40;;;21.60;99.90;;;;;;5067695;28;20175;-82
2021/06/10 08:36:33;;;;;;;18.30;16.40;;;21.20;99.90;;;;;;5104887;28;20163;-82
2021/06/10 08:38:59;;;;;;;17.70;14.00;;;21.20;99.90;;;;;;5083536;28;20514;-82
2021/06/10 08:41:27;;;;;;;19.47;15.30;;;21.40;99.90;;;;;;5084984;28;20421;-81
2021/06/10 08:43:54;;;;;;;24.73;16.70;;;21.50;99.90;;;;;;5083417;28;20761;-82
2021/06/10 08:46:22;;;;;;;20.83;14.47;;;21.70;99.90;;;;;;5100596;28;20435;-82
2021/06/10 08:48:51;;;;;;;13.97;12.47;;;22.00;99.90;;;;;;5108793;28;20471;-82
2021/06/10 08:51:18;;;;;;;19.03;16.00;;;22.20;99.90;;;;;;5103624;28;20400;-82
2021/06/10 08:53:44;;;;;;;12.70;11.40;;;22.50;99.90;;;;;;5085978;28;20391;-82
2021/06/10 08:56:11;;;;;;;11.97;10.77;;;22.70;99.90;;;;;;5070632;28;20384;-82
2021/06/10 08:58:38;;;;;;;12.93;10.30;;;22.50;99.90;;;;;;5095214;28;20422;-82
2021/06/10 09:01:11;;;;;;;12.40;11.10;;;22.40;99.90;;;;;;5090070;28;20486;-81
2021/06/10 09:03:39;;;;;;;11.90;9.63;;;22.30;99.90;;;;;;5088769;28;20447;-82
2021/06/10 09:06:16;;;;;;;13.67;12.23;;;22.40;99.90;;;;;;5085901;28;20413;-81
2021/06/10 09:08:48;;;;;;;9.40;8.50;;;22.80;99.90;;;;;;5120260;28;20516;-81
2021/06/10 09:11:17;;;;;;;9.20;8.10;;;23.10;99.90;;;;;;5105475;28;20416;-81
2021/06/10 09:13:48;;;;;;;8.50;7.80;;;23.20;99.90;;;;;;5106242;28;20860;-81
2021/06/10 09:16:32;;;;;;;8.00;7.30;;;23.40;99.90;;;;;;5104520;28;20784;-80
2021/06/10 09:19:02;;;;;;;8.90;7.60;;;23.50;99.90;;;;;;5125369;27;20466;-81
2021/06/10 09:21:32;;;;;;;7.00;6.40;;;23.60;99.90;;;;;;5111301;27;20395;-81
2021/06/10 09:24:17;;;;;;;7.83;6.73;;;23.70;99.90;;;;;;5129824;27;20447;-82
2021/06/10 09:26:44;;;;;;;8.23;6.03;;;23.90;99.90;;;;;;5064402;28;20418;-82
2021/06/10 09:29:11;;;;;;;7.70;6.97;;;23.90;99.90;;;;;;5049880;28;20454;-82
2021/06/10 09:31:39;;;;;;;6.97;6.27;;;23.90;99.90;;;;;;5031366;28;20414;-83
2021/06/10 09:34:09;;;;;;;6.73;6.20;;;23.80;99.90;;;;;;5062964;28;20465;-82
2021/06/10 09:36:46;;;;;;;7.50;6.83;;;23.60;99.90;;;;;;5086891;28;20413;-81
2021/06/10 09:39:15;;;;;;;7.60;6.93;;;23.70;99.90;;;;;;5068778;28;20404;-81
2021/06/10 09:42:12;;;;;;;10.80;6.80;;;24.00;99.90;;;;;;5068086;28;20425;-80
2021/06/10 09:44:41;;;;;;;8.40;7.60;;;24.10;99.90;;;;;;5085183;28;20409;-81
2021/06/10 09:47:07;;;;;;;6.53;6.03;;;24.10;99.90;;;;;;5068954;28;20413;-81
2021/06/10 09:49:35;;;;;;;9.73;6.33;;;23.50;99.90;;;;;;5082902;28;20465;-81
2021/06/10 09:52:02;;;;;;;6.87;5.60;;;23.30;99.90;;;;;;5031020;28;20588;-81
2021/06/10 09:54:40;;;;;;;6.20;5.70;;;23.70;99.90;;;;;;5061126;28;20406;-82
2021/06/10 09:57:07;;;;;;;8.43;6.17;;;24.10;99.90;;;;;;5057171;28;20418;-81
2021/06/10 09:59:48;;;;;;;6.30;5.80;;;24.00;99.90;;;;;;5072270;28;20420;-82
2021/06/10 10:02:27;;;;;;;6.20;5.67;;;24.20;99.90;;;;;;5076532;28;20392;-81
2021/06/10 10:05:09;;;;;;;6.50;6.10;;;24.50;99.90;;;;;;5055587;28;20400;-80
2021/06/10 10:07:38;;;;;;;7.23;6.30;;;24.70;99.90;;;;;;5105103;28;20429;-83
2021/06/10 10:10:08;;;;;;;6.90;6.30;;;24.80;99.90;;;;;;5058605;28;20454;-83
2021/06/10 10:12:39;;;;;;;8.37;7.57;;;24.90;99.90;;;;;;5053236;28;20504;-83
2021/06/10 10:15:05;;;;;;;7.20;6.57;;;25.10;99.90;;;;;;5071842;28;20428;-83
2021/06/10 10:17:35;;;;;;;11.67;6.80;;;25.10;99.90;;;;;;5074751;28;20442;-83
2021/06/10 10:20:04;;;;;;;7.40;6.67;;;25.20;99.90;;;;;;5076040;28;20412;-83
2021/06/10 10:22:50;;;;;;;9.50;6.87;;;25.10;99.90;;;;;;5072722;28;20441;-83
2021/06/10 10:25:16;;;;;;;8.03;7.33;;;24.60;99.90;;;;;;5049107;28;20415;-82
2021/06/10 10:27:43;;;;;;;9.23;8.20;;;24.20;99.90;;;;;;5032770;28;20459;-81
2021/06/10 10:30:09;;;;;;;7.30;6.70;;;24.50;99.90;;;;;;5053006;28;20570;-83
2021/06/10 10:32:44;;;;;;;8.40;7.30;;;24.20;99.90;;;;;;5042888;28;20423;-82
2021/06/10 10:35:28;;;;;;;8.50;7.60;;;24.40;99.90;;;;;;5037858;28;20447;-82
2021/06/10 10:37:56;;;;;;;7.50;6.90;;;24.40;99.90;;;;;;5036009;28;20428;-81
2021/06/10 10:40:26;;;;;;;8.03;7.33;;;24.20;99.90;;;;;;5003367;28;20423;-81
2021/06/10 10:42:54;;;;;;;7.77;7.03;;;24.40;99.90;;;;;;5011624;28;20397;-83
2021/06/10 10:45:23;;;;;;;9.00;7.97;;;24.70;99.90;;;;;;5034669;28;20436;-83
2021/06/10 10:48:09;;;;;;;11.13;8.17;;;24.40;99.90;;;;;;5025426;28;20909;-82
2021/06/10 10:50:40;;;;;;;9.33;7.07;;;24.50;99.90;;;;;;5025469;28;20989;-82
2021/06/10 10:53:14;;;;;;;8.30;7.70;;;24.90;99.90;;;;;;5000178;28;20428;-83
2021/06/10 10:55:40;;;;;;;7.63;6.93;;;25.20;99.90;;;;;;5031033;28;20593;-82
2021/06/10 10:58:09;;;;;;;7.90;7.20;;;25.50;99.90;;;;;;5074036;28;20397;-80
2021/06/10 11:00:58;;;;;;;8.90;8.20;;;25.50;99.90;;;;;;5107177;28;20476;-81
2021/06/10 11:03:30;;;;;;;8.77;7.97;;;25.50;99.90;;;;;;5081772;28;20417;-82
2021/06/10 11:06:01;;;;;;;7.63;6.93;;;25.20;99.90;;;;;;5075438;28;20508;-83
2021/06/10 11:08:56;;;;;;;8.63;7.93;;;26.00;99.90;;;;;;5075483;28;20474;-82
2021/06/10 11:11:22;;;;;;;8.63;7.10;;;26.50;99.90;;;;;;5086489;28;20426;-82
2021/06/10 11:13:48;;;;;;;7.57;6.87;;;26.20;99.90;;;;;;5067196;28;20905;-84
2021/06/10 11:16:15;;;;;;;8.30;7.50;;;25.80;99.90;;;;;;5108355;28;20238;-82
2021/06/10 11:18:46;;;;;;;6.77;6.20;;;26.20;99.90;;;;;;5077048;28;20435;-82
2021/06/10 11:21:40;;;;;;;6.67;6.17;;;26.70;99.90;;;;;;5059916;28;20397;-83
2021/06/10 11:24:15;;;;;;;7.13;6.53;;;27.10;99.90;;;;;;5089782;28;20456;-83
2021/06/10 11:27:02;;;;;;;8.63;7.90;;;27.20;99.90;;;;;;5089221;28;20403;-82
2021/06/10 11:29:29;;;;;;;8.63;7.83;;;27.10;99.90;;;;;;5074083;28;20991;-83
2021/06/10 11:32:20;;;;;;;8.20;7.50;;;27.40;99.90;;;;;;5070707;28;20413;-81
2021/06/10 11:34:51;;;;;;;7.90;7.20;;;27.60;99.90;;;;;;5107125;28;20411;-82
2021/06/10 11:37:20;;;;;;;8.10;7.40;;;27.00;99.90;;;;;;5071014;28;20456;-79
2021/06/10 11:39:46;;;;;;;6.60;6.10;;;26.70;99.90;;;;;;5069224;28;20431;-81
2021/06/10 11:42:12;;;;;;;8.00;7.40;;;26.70;99.90;;;;;;5113206;28;20412;-80
2021/06/10 11:44:47;;;;;;;6.90;6.30;;;27.40;99.90;;;;;;5093106;28;20416;-82
2021/06/10 11:47:31;;;;;;;7.43;6.83;;;27.90;99.90;;;;;;5071756;28;20479;-82
2021/06/10 11:49:57;;;;;;;6.60;6.00;;;28.10;99.90;;;;;;5129356;28;20443;-82
2021/06/10 11:52:23;;;;;;;6.70;6.20;;;28.20;99.90;;;;;;5127125;28;20419;-82
2021/06/10 11:55:10;;;;;;;7.43;6.73;;;28.20;99.90;;;;;;5128020;28;20398;-82
2021/06/10 11:57:36;;;;;;;7.70;7.07;;;28.10;99.90;;;;;;5127411;28;20390;-83
2021/06/10 12:00:08;;;;;;;7.80;7.10;;;28.40;99.90;;;;;;5091364;28;20969;-82
2021/06/10 12:02:37;;;;;;;6.20;5.27;;;28.30;99.90;;;;;;5125268;28;20458;-83
2021/06/10 12:05:15;;;;;;;6.63;6.13;;;28.30;99.90;;;;;;5124010;28;20522;-82
2021/06/10 12:07:41;;;;;;;6.80;6.30;;;28.30;99.90;;;;;;5106980;28;20510;-83
2021/06/10 12:10:15;;;;;;;6.77;6.17;;;28.40;99.90;;;;;;5105907;28;20602;-82
2021/06/10 12:12:45;;;;;;;7.50;6.90;;;28.60;99.90;;;;;;5112973;28;20416;-82
2021/06/10 12:15:34;;;;;;;6.83;6.17;;;28.60;99.90;;;;;;5092390;28;20403;-82
2021/06/10 12:18:04;;;;;;;7.40;6.80;;;28.70;99.90;;;;;;5114061;28;20459;-82
2021/06/10 12:20:33;;;;;;;6.63;6.03;;;28.90;99.90;;;;;;5077403;28;20407;-82
2021/06/10 12:23:10;;;;;;;7.20;6.70;;;29.00;99.90;;;;;;5090803;28;20395;-82
2021/06/10 12:25:36;;;;;;;6.70;6.10;;;28.80;99.90;;;;;;5104874;28;20400;-82
2021/06/10 12:28:02;;;;;;;6.37;5.80;;;28.90;99.90;;;;;;5042814;28;20430;-82
2021/06/10 12:30:38;;;;;;;7.37;6.50;;;28.90;99.90;;;;;;5042172;28;20322;-82
2021/06/10 12:33:19;;;;;;;6.10;5.70;;;28.80;99.90;;;;;;5046068;28;20450;-82
2021/06/10 12:35:49;;;;;;;7.20;6.50;;;29.10;99.90;;;;;;5045243;28;20890;-82
2021/06/10 12:38:16;;;;;;;7.43;6.83;;;29.20;99.90;;;;;;5046655;28;20418;-82
2021/06/10 12:40:45;;;;;;;6.50;5.87;;;29.50;99.90;;;;;;5050371;28;20386;-82